sensor_id;sensor_type;location;lat;lon;timestamp;pressure;altitude;pressure_sealevel;temperature;humidity
14089;BME280;7120;52.890;6.040;2023-04-26T00:01:00;101816.44;;;4.92;100.00
14089;BME280;7120;52.890;6.040;2023-04-26T00:03:28;101815.97;;;4.95;100.00
14089;BME280;7120;52.890;6.040;2023-04-26T00:05:54;101816.13;;;5.17;100.00
14089;BME280;7120;52.890;6.040;2023-04-26T00:08:19;101810.66;;;5.29;100.00
14089;BME280;7120;52.890;6.040;2023-04-26T00:10:45;101810.06;;;5.27;100.00
14089;BME280;7120;52.890;6.040;2023-04-26T00:13:10;101813.50;;;5.22;100.00
14089;BME280;7120;52.890;6.040;2023-04-26T00:15:35;101815.38;;;5.50;100.00
14089;BME280;7120;52.890;6.040;2023-04-26T00:18:01;101811.66;;;5.57;100.00
14089;BME280;7120;52.890;6.040;2023-04-26T00:20:26;101814.38;;;5.57;100.00
14089;BME280;7120;52.890;6.040;2023-04-26T00:22:51;101808.81;;;5.63;100.00
14089;BME280;7120;52.890;6.040;2023-04-26T00:25:17;101816.22;;;5.51;99.62
14089;BME280;7120;52.890;6.040;2023-04-26T00:27:42;101806.59;;;5.60;100.00
14089;BME280;7120;52.890;6.040;2023-04-26T00:30:08;101817.22;;;5.78;100.00
14089;BME280;7120;52.890;6.040;2023-04-26T00:32:34;101809.06;;;5.62;99.35
14089;BME280;7120;52.890;6.040;2023-04-26T00:35:02;101805.34;;;5.51;96.42
14089;BME280;7120;52.890;6.040;2023-04-26T00:37:27;101804.22;;;5.35;97.97
14089;BME280;7120;52.890;6.040;2023-04-26T00:39:53;101804.84;;;5.54;96.04
14089;BME280;7120;52.890;6.040;2023-04-26T00:42:18;101808.41;;;5.26;97.59
14089;BME280;7120;52.890;6.040;2023-04-26T00:44:44;101812.09;;;5.20;97.65
14089;BME280;7120;52.890;6.040;2023-04-26T00:47:09;101794.81;;;4.69;99.87
14089;BME280;7120;52.890;6.040;2023-04-26T00:49:35;101812.97;;;4.57;100.00
14089;BME280;7120;52.890;6.040;2023-04-26T00:52:01;101810.38;;;4.50;100.00
14089;BME280;7120;52.890;6.040;2023-04-26T00:54:27;101810.50;;;4.44;100.00
14089;BME280;7120;52.890;6.040;2023-04-26T00:56:53;101797.38;;;4.24;100.00
14089;BME280;7120;52.890;6.040;2023-04-26T00:59:19;101808.06;;;4.19;100.00
14089;BME280;7120;52.890;6.040;2023-04-26T01:01:45;101804.66;;;4.11;100.00
14089;BME280;7120;52.890;6.040;2023-04-26T01:04:12;101807.81;;;4.08;100.00
14089;BME280;7120;52.890;6.040;2023-04-26T01:06:39;101811.59;;;4.07;100.00
14089;BME280;7120;52.890;6.040;2023-04-26T01:09:05;101804.53;;;4.18;100.00
14089;BME280;7120;52.890;6.040;2023-04-26T01:11:35;101808.53;;;4.27;100.00
14089;BME280;7120;52.890;6.040;2023-04-26T01:14:02;101809.47;;;4.33;100.00
14089;BME280;7120;52.890;6.040;2023-04-26T01:16:28;101805.00;;;4.38;100.00
14089;BME280;7120;52.890;6.040;2023-04-26T01:18:54;101799.00;;;4.25;100.00
14089;BME280;7120;52.890;6.040;2023-04-26T01:21:22;101807.81;;;4.44;100.00
14089;BME280;7120;52.890;6.040;2023-04-26T01:23:48;101813.22;;;4.55;100.00
14089;BME280;7120;52.890;6.040;2023-04-26T01:26:14;101804.75;;;4.52;100.00
14089;BME280;7120;52.890;6.040;2023-04-26T01:28:40;101809.34;;;4.51;100.00
14089;BME280;7120;52.890;6.040;2023-04-26T01:31:06;101795.88;;;4.68;100.00
14089;BME280;7120;52.890;6.040;2023-04-26T01:33:31;101804.97;;;4.50;100.00
14089;BME280;7120;52.890;6.040;2023-04-26T01:35:56;101809.34;;;4.51;100.00
14089;BME280;7120;52.890;6.040;2023-04-26T01:38:22;101798.59;;;4.68;100.00
14089;BME280;7120;52.890;6.040;2023-04-26T01:40:47;101810.63;;;4.60;100.00
14089;BME280;7120;52.890;6.040;2023-04-26T01:43:12;101807.34;;;4.58;100.00
14089;BME280;7120;52.890;6.040;2023-04-26T01:45:39;101812.31;;;4.38;100.00
14089;BME280;7120;52.890;6.040;2023-04-26T01:48:05;101813.13;;;4.38;100.00
14089;BME280;7120;52.890;6.040;2023-04-26T01:50:31;101813.84;;;4.46;100.00
14089;BME280;7120;52.890;6.040;2023-04-26T01:52:57;101813.47;;;4.54;100.00
14089;BME280;7120;52.890;6.040;2023-04-26T01:55:22;101811.38;;;4.44;100.00
14089;BME280;7120;52.890;6.040;2023-04-26T01:57:47;101802.88;;;4.29;100.00
14089;BME280;7120;52.890;6.040;2023-04-26T02:00:13;101806.97;;;4.43;100.00
14089;BME280;7120;52.890;6.040;2023-04-26T02:02:38;101807.13;;;4.25;100.00
14089;BME280;7120;52.890;6.040;2023-04-26T02:05:04;101809.84;;;4.25;100.00
14089;BME280;7120;52.890;6.040;2023-04-26T02:07:29;101805.50;;;4.24;100.00
14089;BME280;7120;52.890;6.040;2023-04-26T02:09:55;101811.13;;;4.34;100.00
14089;BME280;7120;52.890;6.040;2023-04-26T02:12:20;101810.06;;;4.35;100.00
14089;BME280;7120;52.890;6.040;2023-04-26T02:14:46;101805.72;;;4.10;100.00
14089;BME280;7120;52.890;6.040;2023-04-26T02:17:11;101798.06;;;3.96;100.00
14089;BME280;7120;52.890;6.040;2023-04-26T02:19:36;101806.78;;;4.09;100.00
14089;BME280;7120;52.890;6.040;2023-04-26T02:22:04;101806.84;;;3.79;100.00
14089;BME280;7120;52.890;6.040;2023-04-26T02:24:30;101790.97;;;3.71;100.00
14089;BME280;7120;52.890;6.040;2023-04-26T02:26:55;101806.06;;;3.91;100.00
14089;BME280;7120;52.890;6.040;2023-04-26T02:29:24;101800.63;;;3.79;100.00
14089;BME280;7120;52.890;6.040;2023-04-26T02:31:50;101797.56;;;3.75;100.00
14089;BME280;7120;52.890;6.040;2023-04-26T02:34:15;101797.91;;;3.79;100.00
14089;BME280;7120;52.890;6.040;2023-04-26T02:36:40;101803.84;;;4.11;100.00
14089;BME280;7120;52.890;6.040;2023-04-26T02:39:06;101804.78;;;4.17;100.00
14089;BME280;7120;52.890;6.040;2023-04-26T02:41:31;101806.88;;;4.38;100.00
14089;BME280;7120;52.890;6.040;2023-04-26T02:43:57;101795.31;;;4.43;100.00
14089;BME280;7120;52.890;6.040;2023-04-26T02:46:23;101802.50;;;4.49;100.00
14089;BME280;7120;52.890;6.040;2023-04-26T02:48:48;101801.22;;;4.51;100.00
14089;BME280;7120;52.890;6.040;2023-04-26T02:51:14;101802.75;;;4.47;100.00
14089;BME280;7120;52.890;6.040;2023-04-26T02:53:40;101792.63;;;4.43;100.00
14089;BME280;7120;52.890;6.040;2023-04-26T02:56:05;101795.81;;;4.39;100.00
14089;BME280;7120;52.890;6.040;2023-04-26T02:58:31;101792.63;;;4.43;100.00
14089;BME280;7120;52.890;6.040;2023-04-26T03:00:57;101787.25;;;4.31;100.00
14089;BME280;7120;52.890;6.040;2023-04-26T03:03:23;101793.00;;;4.34;100.00
14089;BME280;7120;52.890;6.040;2023-04-26T03:05:49;101799.94;;;4.30;100.00
14089;BME280;7120;52.890;6.040;2023-04-26T03:08:15;101804.88;;;4.45;100.00
14089;BME280;7120;52.890;6.040;2023-04-26T03:10:40;101801.31;;;4.56;100.00
14089;BME280;7120;52.890;6.040;2023-04-26T03:13:06;101802.75;;;4.59;100.00
14089;BME280;7120;52.890;6.040;2023-04-26T03:15:31;101806.41;;;4.53;100.00
14089;BME280;7120;52.890;6.040;2023-04-26T03:17:56;101802.75;;;4.59;100.00
14089;BME280;7120;52.890;6.040;2023-04-26T03:20:23;101798.94;;;4.72;100.00
14089;BME280;7120;52.890;6.040;2023-04-26T03:22:48;101799.53;;;4.62;100.00
14089;BME280;7120;52.890;6.040;2023-04-26T03:25:14;101791.47;;;4.38;100.00
14089;BME280;7120;52.890;6.040;2023-04-26T03:27:40;101787.00;;;4.44;100.00
14089;BME280;7120;52.890;6.040;2023-04-26T03:30:06;101787.94;;;4.38;100.00
14089;BME280;7120;52.890;6.040;2023-04-26T03:32:32;101787.81;;;4.45;100.00
14089;BME280;7120;52.890;6.040;2023-04-26T03:34:57;101788.38;;;4.47;100.00
14089;BME280;7120;52.890;6.040;2023-04-26T03:37:22;101788.97;;;4.49;100.00
14089;BME280;7120;52.890;6.040;2023-04-26T03:39:48;101785.56;;;4.53;100.00
14089;BME280;7120;52.890;6.040;2023-04-26T03:42:14;101780.25;;;4.47;100.00
14089;BME280;7120;52.890;6.040;2023-04-26T03:44:40;101767.53;;;4.47;100.00
14089;BME280;7120;52.890;6.040;2023-04-26T03:47:05;101772.25;;;4.52;100.00
14089;BME280;7120;52.890;6.040;2023-04-26T03:49:31;101775.88;;;4.57;100.00
14089;BME280;7120;52.890;6.040;2023-04-26T03:51:56;101780.97;;;4.54;100.00
14089;BME280;7120;52.890;6.040;2023-04-26T03:54:21;101772.63;;;4.84;100.00
14089;BME280;7120;52.890;6.040;2023-04-26T03:56:47;101775.03;;;4.68;100.00
14089;BME280;7120;52.890;6.040;2023-04-26T03:59:12;101792.97;;;4.46;100.00
14089;BME280;7120;52.890;6.040;2023-04-26T04:01:37;101777.94;;;4.38;100.00
14089;BME280;7120;52.890;6.040;2023-04-26T04:04:03;101779.56;;;4.39;100.00
14089;BME280;7120;52.890;6.040;2023-04-26T04:06:28;101783.59;;;4.25;100.00
14089;BME280;7120;52.890;6.040;2023-04-26T04:08:54;101784.88;;;4.23;100.00
14089;BME280;7120;52.890;6.040;2023-04-26T04:11:20;101784.97;;;4.28;100.00
14089;BME280;7120;52.890;6.040;2023-04-26T04:13:45;101785.22;;;4.14;100.00
14089;BME280;7120;52.890;6.040;2023-04-26T04:16:11;101787.47;;;4.18;100.00
14089;BME280;7120;52.890;6.040;2023-04-26T04:18:36;101785.81;;;4.05;100.00
14089;BME280;7120;52.890;6.040;2023-04-26T04:21:02;101794.75;;;4.05;100.00
14089;BME280;7120;52.890;6.040;2023-04-26T04:23:27;101798.78;;;4.03;100.00
14089;BME280;7120;52.890;6.040;2023-04-26T04:25:52;101805.94;;;4.44;100.00
14089;BME280;7120;52.890;6.040;2023-04-26T04:28:18;101799.66;;;4.55;100.00
14089;BME280;7120;52.890;6.040;2023-04-26T04:30:44;101813.00;;;4.45;100.00
14089;BME280;7120;52.890;6.040;2023-04-26T04:33:10;101798.97;;;4.48;100.00
14089;BME280;7120;52.890;6.040;2023-04-26T04:35:36;101804.47;;;4.77;100.00
14089;BME280;7120;52.890;6.040;2023-04-26T04:38:02;101800.38;;;5.03;100.00
14089;BME280;7120;52.890;6.040;2023-04-26T04:40:27;101787.81;;;5.13;100.00
14089;BME280;7120;52.890;6.040;2023-04-26T04:42:53;101791.16;;;5.15;100.00
14089;BME280;7120;52.890;6.040;2023-04-26T04:45:19;101785.84;;;5.37;100.00
14089;BME280;7120;52.890;6.040;2023-04-26T04:47:45;101782.97;;;5.44;99.67
14089;BME280;7120;52.890;6.040;2023-04-26T04:50:11;101786.84;;;5.48;100.00
14089;BME280;7120;52.890;6.040;2023-04-26T04:52:37;101781.16;;;5.33;100.00
14089;BME280;7120;52.890;6.040;2023-04-26T04:55:03;101785.69;;;5.44;100.00
14089;BME280;7120;52.890;6.040;2023-04-26T04:57:29;101783.06;;;5.49;100.00
14089;BME280;7120;52.890;6.040;2023-04-26T04:59:55;101792.84;;;5.84;97.39
14089;BME280;7120;52.890;6.040;2023-04-26T05:02:21;101791.88;;;5.90;96.88
14089;BME280;7120;52.890;6.040;2023-04-26T05:04:46;101793.63;;;5.96;93.04
14089;BME280;7120;52.890;6.040;2023-04-26T05:07:12;101802.22;;;6.26;91.55
14089;BME280;7120;52.890;6.040;2023-04-26T05:09:40;101787.81;;;6.43;91.92
14089;BME280;7120;52.890;6.040;2023-04-26T05:12:06;101794.16;;;6.70;90.12
14089;BME280;7120;52.890;6.040;2023-04-26T05:14:31;101795.28;;;6.74;92.47
14089;BME280;7120;52.890;6.040;2023-04-26T05:16:56;101800.66;;;6.91;93.59
14089;BME280;7120;52.890;6.040;2023-04-26T05:19:22;101811.16;;;6.82;88.83
14089;BME280;7120;52.890;6.040;2023-04-26T05:21:47;101805.53;;;6.67;89.99
14089;BME280;7120;52.890;6.040;2023-04-26T05:24:12;101808.94;;;6.57;86.21
14089;BME280;7120;52.890;6.040;2023-04-26T05:26:38;101804.69;;;6.67;90.92
14089;BME280;7120;52.890;6.040;2023-04-26T05:29:03;101800.41;;;6.71;88.53
14089;BME280;7120;52.890;6.040;2023-04-26T05:31:28;101803.38;;;6.69;90.62
14089;BME280;7120;52.890;6.040;2023-04-26T05:33:54;101804.69;;;6.45;89.93
14089;BME280;7120;52.890;6.040;2023-04-26T05:36:20;101804.75;;;6.50;91.15
14089;BME280;7120;52.890;6.040;2023-04-26T05:38:45;101815.00;;;6.43;91.03
14089;BME280;7120;52.890;6.040;2023-04-26T05:41:10;101812.09;;;6.49;90.21
14089;BME280;7120;52.890;6.040;2023-04-26T05:43:36;101819.91;;;6.46;93.50
14089;BME280;7120;52.890;6.040;2023-04-26T05:46:02;101828.69;;;6.53;93.72
14089;BME280;7120;52.890;6.040;2023-04-26T05:48:27;101819.16;;;6.50;91.50
14089;BME280;7120;52.890;6.040;2023-04-26T05:50:54;101825.75;;;6.76;93.71
14089;BME280;7120;52.890;6.040;2023-04-26T05:53:19;101817.59;;;6.76;93.60
14089;BME280;7120;52.890;6.040;2023-04-26T05:55:45;101831.63;;;6.90;93.85
14089;BME280;7120;52.890;6.040;2023-04-26T05:58:10;101829.75;;;7.39;95.48
14089;BME280;7120;52.890;6.040;2023-04-26T06:00:36;101826.31;;;7.49;91.37
14089;BME280;7120;52.890;6.040;2023-04-26T06:03:03;101828.25;;;7.81;93.65
14089;BME280;7120;52.890;6.040;2023-04-26T06:05:28;101824.88;;;8.01;90.05
14089;BME280;7120;52.890;6.040;2023-04-26T06:07:53;101835.78;;;8.38;90.11
14089;BME280;7120;52.890;6.040;2023-04-26T06:10:19;101831.13;;;8.01;86.95
14089;BME280;7120;52.890;6.040;2023-04-26T06:12:46;101831.88;;;7.91;89.75
14089;BME280;7120;52.890;6.040;2023-04-26T06:15:12;101835.09;;;8.20;87.55
14089;BME280;7120;52.890;6.040;2023-04-26T06:17:38;101844.88;;;8.16;86.23
14089;BME280;7120;52.890;6.040;2023-04-26T06:20:04;101848.38;;;8.44;86.51
14089;BME280;7120;52.890;6.040;2023-04-26T06:22:30;101850.28;;;8.43;86.19
14089;BME280;7120;52.890;6.040;2023-04-26T06:24:55;101841.41;;;8.26;84.47
14089;BME280;7120;52.890;6.040;2023-04-26T06:27:21;101838.69;;;8.26;86.27
14089;BME280;7120;52.890;6.040;2023-04-26T06:29:46;101845.09;;;8.42;87.64
14089;BME280;7120;52.890;6.040;2023-04-26T06:32:11;101843.78;;;8.17;86.21
14089;BME280;7120;52.890;6.040;2023-04-26T06:34:37;101845.59;;;7.75;88.27
14089;BME280;7120;52.890;6.040;2023-04-26T06:37:03;101848.03;;;8.03;88.35
14089;BME280;7120;52.890;6.040;2023-04-26T06:39:29;101840.47;;;8.42;87.80
14089;BME280;7120;52.890;6.040;2023-04-26T06:41:54;101833.63;;;8.40;87.41
14089;BME280;7120;52.890;6.040;2023-04-26T06:44:20;101843.69;;;8.82;86.05
14089;BME280;7120;52.890;6.040;2023-04-26T06:46:45;101845.25;;;8.72;80.05
14089;BME280;7120;52.890;6.040;2023-04-26T06:49:11;101850.22;;;8.80;83.19
14089;BME280;7120;52.890;6.040;2023-04-26T06:51:37;101854.06;;;8.85;81.53
14089;BME280;7120;52.890;6.040;2023-04-26T06:54:02;101853.53;;;8.93;79.17
14089;BME280;7120;52.890;6.040;2023-04-26T06:56:28;101847.44;;;9.33;82.24
14089;BME280;7120;52.890;6.040;2023-04-26T06:59:00;101848.31;;;9.59;75.23
14089;BME280;7120;52.890;6.040;2023-04-26T07:01:26;101837.94;;;9.81;76.29
14089;BME280;7120;52.890;6.040;2023-04-26T07:03:56;101847.53;;;9.89;74.74
14089;BME280;7120;52.890;6.040;2023-04-26T07:06:22;101855.59;;;9.28;69.89
14089;BME280;7120;52.890;6.040;2023-04-26T07:08:48;101857.75;;;9.21;70.67
14089;BME280;7120;52.890;6.040;2023-04-26T07:11:13;101843.41;;;9.81;75.73
14089;BME280;7120;52.890;6.040;2023-04-26T07:13:39;101850.56;;;10.23;72.01
14089;BME280;7120;52.890;6.040;2023-04-26T07:16:04;101838.81;;;10.23;69.83
14089;BME280;7120;52.890;6.040;2023-04-26T07:18:30;101855.13;;;10.63;68.85
14089;BME280;7120;52.890;6.040;2023-04-26T07:20:55;101843.81;;;10.90;64.75
14089;BME280;7120;52.890;6.040;2023-04-26T07:23:21;101850.31;;;11.05;63.35
14089;BME280;7120;52.890;6.040;2023-04-26T07:25:46;101848.88;;;10.42;65.07
14089;BME280;7120;52.890;6.040;2023-04-26T07:28:11;101842.03;;;10.35;66.58
14089;BME280;7120;52.890;6.040;2023-04-26T07:30:37;101846.66;;;10.60;66.65
14089;BME280;7120;52.890;6.040;2023-04-26T07:33:02;101865.56;;;10.46;65.64
14089;BME280;7120;52.890;6.040;2023-04-26T07:35:27;101851.88;;;10.41;64.89
14089;BME280;7120;52.890;6.040;2023-04-26T07:37:53;101855.44;;;10.41;66.07
14089;BME280;7120;52.890;6.040;2023-04-26T07:40:18;101854.31;;;10.58;66.97
14089;BME280;7120;52.890;6.040;2023-04-26T07:42:46;101853.28;;;11.13;64.20
14089;BME280;7120;52.890;6.040;2023-04-26T07:45:12;101859.78;;;11.27;65.48
14089;BME280;7120;52.890;6.040;2023-04-26T07:47:37;101860.66;;;11.23;64.54
14089;BME280;7120;52.890;6.040;2023-04-26T07:50:03;101861.56;;;11.03;64.84
14089;BME280;7120;52.890;6.040;2023-04-26T07:52:28;101860.66;;;11.23;64.92
14089;BME280;7120;52.890;6.040;2023-04-26T07:54:54;101858.22;;;11.66;62.76
14089;BME280;7120;52.890;6.040;2023-04-26T07:57:19;101863.88;;;11.35;63.56
14089;BME280;7120;52.890;6.040;2023-04-26T07:59:45;101855.81;;;11.05;61.13
14089;BME280;7120;52.890;6.040;2023-04-26T08:02:10;101863.63;;;11.32;60.57
14089;BME280;7120;52.890;6.040;2023-04-26T08:04:35;101872.50;;;11.03;61.12
14089;BME280;7120;52.890;6.040;2023-04-26T08:07:01;101863.34;;;11.33;60.19
14089;BME280;7120;52.890;6.040;2023-04-26T08:09:27;101865.13;;;11.04;61.57
14089;BME280;7120;52.890;6.040;2023-04-26T08:11:53;101864.59;;;10.96;58.50
14089;BME280;7120;52.890;6.040;2023-04-26T08:14:19;101868.09;;;11.12;61.73
14089;BME280;7120;52.890;6.040;2023-04-26T08:16:44;101874.84;;;11.79;61.79
14089;BME280;7120;52.890;6.040;2023-04-26T08:19:10;101869.69;;;11.73;61.66
14089;BME280;7120;52.890;6.040;2023-04-26T08:21:35;101864.59;;;11.95;57.33
14089;BME280;7120;52.890;6.040;2023-04-26T08:24:00;101874.31;;;13.23;62.22
14089;BME280;7120;52.890;6.040;2023-04-26T08:26:25;101866.19;;;14.07;52.18
14089;BME280;7120;52.890;6.040;2023-04-26T08:28:51;101876.19;;;13.27;49.63
14089;BME280;7120;52.890;6.040;2023-04-26T08:31:16;101876.84;;;12.42;57.41
14089;BME280;7120;52.890;6.040;2023-04-26T08:33:41;101873.91;;;12.33;56.83
14089;BME280;7120;52.890;6.040;2023-04-26T08:36:07;101881.31;;;12.86;51.63
14089;BME280;7120;52.890;6.040;2023-04-26T08:38:32;101870.09;;;11.95;50.51
14089;BME280;7120;52.890;6.040;2023-04-26T08:40:58;101873.19;;;12.47;52.69
14089;BME280;7120;52.890;6.040;2023-04-26T08:43:27;101879.16;;;13.07;53.16
14089;BME280;7120;52.890;6.040;2023-04-26T08:45:53;101879.31;;;13.39;49.30
14089;BME280;7120;52.890;6.040;2023-04-26T08:48:19;101878.72;;;14.32;51.96
14089;BME280;7120;52.890;6.040;2023-04-26T08:50:46;101874.94;;;14.74;49.67
14089;BME280;7120;52.890;6.040;2023-04-26T08:53:16;101884.44;;;14.95;48.10
14089;BME280;7120;52.890;6.040;2023-04-26T08:55:46;101880.22;;;14.56;48.54
14089;BME280;7120;52.890;6.040;2023-04-26T08:58:12;101883.47;;;13.93;51.21
14089;BME280;7120;52.890;6.040;2023-04-26T09:00:38;101890.47;;;12.47;55.74
14089;BME280;7120;52.890;6.040;2023-04-26T09:03:03;101886.97;;;11.68;58.69
14089;BME280;7120;52.890;6.040;2023-04-26T09:05:29;101889.41;;;11.20;60.86
14089;BME280;7120;52.890;6.040;2023-04-26T09:08:00;101876.66;;;10.95;63.24
14089;BME280;7120;52.890;6.040;2023-04-26T09:10:26;101886.06;;;10.59;62.33
14089;BME280;7120;52.890;6.040;2023-04-26T09:12:52;101885.72;;;10.70;60.34
14089;BME280;7120;52.890;6.040;2023-04-26T09:15:20;101885.69;;;10.91;62.17
14089;BME280;7120;52.890;6.040;2023-04-26T09:17:47;101883.41;;;11.18;58.54
14089;BME280;7120;52.890;6.040;2023-04-26T09:20:27;101878.91;;;11.43;57.44
14089;BME280;7120;52.890;6.040;2023-04-26T09:23:04;101877.50;;;11.50;54.95
14089;BME280;7120;52.890;6.040;2023-04-26T09:25:30;101871.91;;;11.71;55.79
14089;BME280;7120;52.890;6.040;2023-04-26T09:27:57;101886.56;;;11.46;57.00
14089;BME280;7120;52.890;6.040;2023-04-26T09:30:23;101883.06;;;10.50;58.22
14089;BME280;7120;52.890;6.040;2023-04-26T09:35:32;101879.72;;;10.63;55.59
14089;BME280;7120;52.890;6.040;2023-04-26T09:38:00;101876.34;;;11.07;55.04
14089;BME280;7120;52.890;6.040;2023-04-26T09:40:37;101882.84;;;11.21;53.72
14089;BME280;7120;52.890;6.040;2023-04-26T09:43:06;101881.91;;;10.77;64.04
14089;BME280;7120;52.890;6.040;2023-04-26T09:45:41;101890.38;;;10.75;68.19
14089;BME280;7120;52.890;6.040;2023-04-26T09:48:16;101897.75;;;10.85;69.05
14089;BME280;7120;52.890;6.040;2023-04-26T09:50:42;101900.75;;;10.93;68.37
14089;BME280;7120;52.890;6.040;2023-04-26T09:53:09;101892.25;;;10.85;69.82
14089;BME280;7120;52.890;6.040;2023-04-26T09:55:35;101889.81;;;10.83;68.01
14089;BME280;7120;52.890;6.040;2023-04-26T09:58:06;101895.16;;;11.19;64.78
14089;BME280;7120;52.890;6.040;2023-04-26T10:00:32;101887.88;;;10.89;63.53
14089;BME280;7120;52.890;6.040;2023-04-26T10:02:58;101892.56;;;10.78;67.32
14089;BME280;7120;52.890;6.040;2023-04-26T10:05:24;101891.72;;;10.93;62.58
14089;BME280;7120;52.890;6.040;2023-04-26T10:07:50;101886.31;;;11.37;61.00
14089;BME280;7120;52.890;6.040;2023-04-26T10:10:17;101883.81;;;12.29;56.66
14089;BME280;7120;52.890;6.040;2023-04-26T10:12:42;101883.13;;;13.19;56.32
14089;BME280;7120;52.890;6.040;2023-04-26T10:15:09;101872.47;;;13.93;48.35
14089;BME280;7120;52.890;6.040;2023-04-26T10:17:38;101870.94;;;14.52;48.70
14089;BME280;7120;52.890;6.040;2023-04-26T10:20:08;101878.81;;;15.00;49.32
14089;BME280;7120;52.890;6.040;2023-04-26T10:22:39;101878.97;;;14.49;48.76
14089;BME280;7120;52.890;6.040;2023-04-26T10:25:08;101870.69;;;14.02;49.94
14089;BME280;7120;52.890;6.040;2023-04-26T10:30:15;101870.16;;;13.01;51.23
14089;BME280;7120;52.890;6.040;2023-04-26T10:35:23;101875.28;;;12.31;53.37
14089;BME280;7120;52.890;6.040;2023-04-26T10:40:30;101874.59;;;11.81;51.48
14089;BME280;7120;52.890;6.040;2023-04-26T10:45:34;101878.56;;;10.95;54.37
14089;BME280;7120;52.890;6.040;2023-04-26T10:53:23;101887.72;;;10.39;59.10
14089;BME280;7120;52.890;6.040;2023-04-26T10:55:49;101883.59;;;10.42;59.21
14089;BME280;7120;52.890;6.040;2023-04-26T10:58:31;101888.41;;;10.91;60.93
14089;BME280;7120;52.890;6.040;2023-04-26T11:01:04;101881.31;;;10.90;58.28
14089;BME280;7120;52.890;6.040;2023-04-26T11:03:30;101878.72;;;11.24;56.59
14089;BME280;7120;52.890;6.040;2023-04-26T11:05:56;101886.63;;;11.85;54.82
14089;BME280;7120;52.890;6.040;2023-04-26T11:08:26;101884.44;;;11.33;57.61
14089;BME280;7120;52.890;6.040;2023-04-26T11:11:05;101877.00;;;10.68;65.27
14089;BME280;7120;52.890;6.040;2023-04-26T11:13:35;101891.50;;;9.82;65.47
14089;BME280;7120;52.890;6.040;2023-04-26T11:16:02;101895.78;;;9.38;69.57
14089;BME280;7120;52.890;6.040;2023-04-26T11:18:29;101901.94;;;9.13;73.53
14089;BME280;7120;52.890;6.040;2023-04-26T11:20:55;101896.00;;;9.26;69.75
14089;BME280;7120;52.890;6.040;2023-04-26T11:23:22;101892.13;;;9.22;68.50
14089;BME280;7120;52.890;6.040;2023-04-26T11:25:47;101889.44;;;9.27;71.18
14089;BME280;7120;52.890;6.040;2023-04-26T11:28:13;101892.78;;;9.49;69.38
14089;BME280;7120;52.890;6.040;2023-04-26T11:30:38;101890.06;;;9.49;67.03
14089;BME280;7120;52.890;6.040;2023-04-26T11:33:03;101877.00;;;9.82;69.64
14089;BME280;7120;52.890;6.040;2023-04-26T11:35:32;101887.41;;;10.10;69.27
14089;BME280;7120;52.890;6.040;2023-04-26T11:37:58;101889.63;;;10.44;66.52
14089;BME280;7120;52.890;6.040;2023-04-26T11:40:28;101884.94;;;9.83;67.75
14089;BME280;7120;52.890;6.040;2023-04-26T11:42:58;101888.47;;;9.79;71.52
14089;BME280;7120;52.890;6.040;2023-04-26T11:45:23;101889.03;;;10.62;70.07
14089;BME280;7120;52.890;6.040;2023-04-26T11:47:49;101893.56;;;11.67;68.69
14089;BME280;7120;52.890;6.040;2023-04-26T11:50:14;101884.19;;;12.47;61.44
14089;BME280;7120;52.890;6.040;2023-04-26T11:52:40;101892.09;;;13.49;62.60
14089;BME280;7120;52.890;6.040;2023-04-26T11:55:06;101883.34;;;12.75;61.80
14089;BME280;7120;52.890;6.040;2023-04-26T11:57:33;101883.06;;;11.79;59.96
14089;BME280;7120;52.890;6.040;2023-04-26T12:00:11;101889.09;;;11.81;61.13
14089;BME280;7120;52.890;6.040;2023-04-26T12:02:47;101891.22;;;11.40;61.74
14089;BME280;7120;52.890;6.040;2023-04-26T12:05:28;101886.75;;;11.60;59.34
14089;BME280;7120;52.890;6.040;2023-04-26T12:07:58;101887.56;;;12.04;60.13
14089;BME280;7120;52.890;6.040;2023-04-26T12:12:51;101891.38;;;12.43;61.82
14089;BME280;7120;52.890;6.040;2023-04-26T12:15:18;101892.81;;;12.35;57.32
14089;BME280;7120;52.890;6.040;2023-04-26T12:18:06;101892.94;;;11.80;61.85
14089;BME280;7120;52.890;6.040;2023-04-26T12:20:36;101893.44;;;11.38;56.55
14089;BME280;7120;52.890;6.040;2023-04-26T12:23:11;101900.06;;;11.27;62.13
14089;BME280;7120;52.890;6.040;2023-04-26T12:25:39;101899.03;;;11.67;58.40
14089;BME280;7120;52.890;6.040;2023-04-26T12:28:07;101896.50;;;11.81;61.01
14089;BME280;7120;52.890;6.040;2023-04-26T12:30:36;101902.56;;;11.73;60.22
14089;BME280;7120;52.890;6.040;2023-04-26T12:33:02;101906.69;;;11.11;58.86
14089;BME280;7120;52.890;6.040;2023-04-26T12:35:28;101910.59;;;10.99;60.89
14089;BME280;7120;52.890;6.040;2023-04-26T12:37:53;101907.66;;;10.40;57.61
14089;BME280;7120;52.890;6.040;2023-04-26T12:40:23;101905.41;;;10.78;59.20
14089;BME280;7120;52.890;6.040;2023-04-26T12:42:49;101902.75;;;10.52;62.10
14089;BME280;7120;52.890;6.040;2023-04-26T12:45:18;101904.94;;;10.50;63.91
14089;BME280;7120;52.890;6.040;2023-04-26T12:47:44;101901.28;;;10.90;61.59
14089;BME280;7120;52.890;6.040;2023-04-26T12:50:11;101901.16;;;11.31;59.73
14089;BME280;7120;52.890;6.040;2023-04-26T12:52:38;101896.78;;;11.79;56.42
14089;BME280;7120;52.890;6.040;2023-04-26T12:55:06;101902.34;;;11.64;57.54
14089;BME280;7120;52.890;6.040;2023-04-26T12:57:32;101897.84;;;12.23;54.80
14089;BME280;7120;52.890;6.040;2023-04-26T12:59:58;101896.19;;;13.89;48.93
14089;BME280;7120;52.890;6.040;2023-04-26T13:02:23;101892.16;;;15.34;47.39
14089;BME280;7120;52.890;6.040;2023-04-26T13:04:49;101891.28;;;15.11;43.18
14089;BME280;7120;52.890;6.040;2023-04-26T13:07:14;101887.22;;;15.59;41.51
14089;BME280;7120;52.890;6.040;2023-04-26T13:09:40;101885.66;;;15.17;47.22
14089;BME280;7120;52.890;6.040;2023-04-26T13:12:06;101886.88;;;14.97;44.93
14089;BME280;7120;52.890;6.040;2023-04-26T13:14:31;101888.28;;;14.53;45.37
14089;BME280;7120;52.890;6.040;2023-04-26T13:16:56;101890.22;;;14.01;45.04
14089;BME280;7120;52.890;6.040;2023-04-26T13:19:22;101895.41;;;12.50;48.71